WAPP/AMQ METAR and TAF weather

Enter ICAO airport designator
Station Type Date Time Source
WAPP METAR 2020/09/22 00:00 UTC NOAA

WAPP 220000Z 16003KT 110V210 9000 FEW016 BKN017 27/25 Q1011 NOSIG


Station Type Date Time Source
WAPP Decoded METAR 2020/09/22 00:00 UTC NOAA

Ambon / Pattimura, Indonesia (WAPP) 03-42S 128-05E 12M
Sep 21, 2020 - 08:00 PM EDT / 2020.09.22 0000 UTC
Wind: from the SSE (160 degrees) at 3 MPH (3 KT) (direction variable):0
Visibility: 5 mile(s):0
Sky conditions: mostly cloudy
Temperature: 80 F (27 C)
Dew Point: 77 F (25 C)
Relative Humidity: 88%
Pressure (altimeter): 29.85 in. Hg (1011 hPa)
ob: WAPP 220000Z 16003KT 110V210 9000 FEW016 BKN017 27/25 Q1011 NOSIG
cycle: 0

Station Type Date Time Source
WAPP TAF 2015/06/30 00:57 UTC NOAA

TAF WAPP 302300Z 0100/0124 34006KT 9999 SCT018
TEMPO 0101/0104 7000 -RA BKN017
BECMG 0105/0107 21006KT
BECMG 0109/0111 32006KT

Example: see airport list